McHenry, Mississippi
Current Conditions -  °F | °C
As of 9:53 AM on Tuesday 21 Oct 2014 (Local Time) from KGPT Reporting Station
Clear Clear  
Wind Chill: 69°   Ceiling: Unl
Heat Index: 69°   Visibility: 10mi
Dew Point: 53°   Wind: 7mph
Humidity: 57%   Direction: 30°NNE
Pressure: 30.06"   Gusts: NA
Location:  30.71°N, 89.14°W
Report Text: KGPT 211453Z 03006KT 10SM CLR 21/12 A3006 RMK AO2 SLP179 T02060117 50011
Loading
Personal Weather Stations






























Interactive Weather Map New forecast layout! Learn more

10-Day Weather Forecast

Advertisements
Track Severe Weather on mobile